Terminal Aerodrome Forecast
Issued by NWS Mt. Holly, NJ

Home | Current Version | Previous Version | Text Only | Print | Product List | Glossary On
Versions: 1 2 3 4 5 6 7 8 9 10 11 12 13 14 15 16 17 18 19
374
FTUS41 KPHI 240534
TAFILG
TAF
KILG 240534Z 2406/2506 27009KT P6SM SKC
     FM241200 29011G21KT P6SM SCT045
     FM241800 31013G21KT P6SM BKN045
     FM242100 30012G21KT P6SM SCT045
     FM250000 31008KT P6SM SCT045=

USA.gov is the U.S. government's official web portal to all federal, state and local government web resources and services.